Time;durP1;ratioP1;P1;durP2;ratioP2;P2;SDS_P1;SDS_P2;PMS_P1;PMS_P2;Temp;Humidity;BMP_temperature;BMP_pressure;BME280_temperature;BME280_humidity;BME280_pressure;Samples;Min_cycle;Max_cycle;Signal;HPM_P1;HPM_P2
2023/03/01 00:00:50;;;;;;;13.75;6.85;;;2.50;99.90;;;;;;5014452;28;20037;-75
2023/03/01 00:03:16;;;;;;;12.88;7.25;;;2.40;99.90;;;;;;5018564;28;20049;-75
2023/03/01 00:05:47;;;;;;;12.63;7.32;;;2.40;99.90;;;;;;5014122;28;20021;-75
2023/03/01 00:08:13;;;;;;;12.52;7.78;;;2.40;99.90;;;;;;5018750;28;20037;-75
2023/03/01 00:10:39;;;;;;;14.05;7.00;;;2.40;99.90;;;;;;4996526;28;20029;-75
2023/03/01 00:13:05;;;;;;;14.07;6.60;;;2.40;99.90;;;;;;5015769;28;20034;-75
2023/03/01 00:15:31;;;;;;;14.85;7.55;;;2.40;99.90;;;;;;5020109;28;20029;-74
2023/03/01 00:17:57;;;;;;;14.57;7.93;;;2.40;99.90;;;;;;5023787;28;20034;-75
2023/03/01 00:20:23;;;;;;;12.70;6.28;;;2.40;99.90;;;;;;5024280;28;20535;-73
2023/03/01 00:22:49;;;;;;;15.02;7.88;;;2.30;99.90;;;;;;5002463;28;20037;-73
2023/03/01 00:25:15;;;;;;;13.77;6.88;;;2.40;99.90;;;;;;5015654;28;20432;-73
2023/03/01 00:27:40;;;;;;;12.93;6.53;;;2.40;99.90;;;;;;4999575;28;20029;-73
2023/03/01 00:30:08;;;;;;;13.18;7.00;;;2.30;99.90;;;;;;5015228;28;20026;-73
2023/03/01 00:32:34;;;;;;;14.45;6.65;;;2.30;99.90;;;;;;5016483;28;20512;-74
2023/03/01 00:34:59;;;;;;;12.77;6.82;;;2.30;99.90;;;;;;5015612;28;20064;-75
2023/03/01 00:37:26;;;;;;;12.45;6.60;;;2.30;99.90;;;;;;5016769;28;20056;-74
2023/03/01 00:39:52;;;;;;;11.50;6.95;;;2.30;99.90;;;;;;5016668;28;20037;-73
2023/03/01 00:42:18;;;;;;;13.73;7.10;;;2.30;99.90;;;;;;5000322;28;20030;-74
2023/03/01 00:44:43;;;;;;;10.20;5.75;;;2.30;99.90;;;;;;5018203;28;20481;-75
2023/03/01 00:47:09;;;;;;;14.30;7.20;;;2.30;99.90;;;;;;5018349;28;20068;-72
2023/03/01 00:49:35;;;;;;;16.23;7.72;;;2.30;99.90;;;;;;5017347;28;20029;-72
2023/03/01 00:52:00;;;;;;;12.50;6.43;;;2.20;99.90;;;;;;5015402;28;20033;-74
2023/03/01 00:54:26;;;;;;;11.45;6.65;;;2.20;99.90;;;;;;5018928;28;20037;-72
2023/03/01 00:56:52;;;;;;;15.73;6.95;;;2.20;99.90;;;;;;5016003;28;20607;-72
2023/03/01 00:59:18;;;;;;;18.85;7.57;;;2.20;99.90;;;;;;5016715;28;20040;-73
2023/03/01 01:01:45;;;;;;;17.63;7.28;;;2.20;99.90;;;;;;5019622;28;20173;-72
2023/03/01 01:04:13;;;;;;;13.70;6.88;;;2.20;99.90;;;;;;5017074;28;20033;-72
2023/03/01 01:06:44;;;;;;;16.45;7.45;;;2.20;99.90;;;;;;5018976;28;20088;-72
2023/03/01 01:09:16;;;;;;;11.65;6.25;;;2.20;99.90;;;;;;5024017;28;20067;-73
2023/03/01 01:11:47;;;;;;;14.30;6.85;;;2.10;99.90;;;;;;5003947;28;20022;-72
2023/03/01 01:14:13;;;;;;;12.30;6.88;;;2.10;99.90;;;;;;5023503;28;20040;-74
2023/03/01 01:16:39;;;;;;;12.55;6.75;;;2.20;99.90;;;;;;5026864;28;20081;-75
2023/03/01 01:19:06;;;;;;;12.80;6.68;;;2.10;99.90;;;;;;5010684;28;20029;-73
2023/03/01 01:21:32;;;;;;;13.13;6.60;;;2.10;99.90;;;;;;5023238;28;20034;-73
2023/03/01 01:23:58;;;;;;;12.43;7.07;;;2.10;99.90;;;;;;5026002;28;20044;-73
2023/03/01 01:26:27;;;;;;;11.40;6.30;;;2.10;99.90;;;;;;5029446;28;20029;-72
2023/03/01 01:28:53;;;;;;;13.88;6.20;;;2.10;99.90;;;;;;5026078;28;20025;-74
2023/03/01 01:31:23;;;;;;;12.35;6.43;;;2.10;99.90;;;;;;5005851;28;20037;-74
2023/03/01 01:33:50;;;;;;;12.95;7.65;;;2.00;99.90;;;;;;5027681;28;20030;-74
2023/03/01 01:36:16;;;;;;;10.98;5.85;;;2.00;99.90;;;;;;5021209;28;20037;-75
2023/03/01 01:38:42;;;;;;;13.75;7.45;;;2.10;99.90;;;;;;5021242;28;20041;-73
2023/03/01 01:41:11;;;;;;;10.55;5.85;;;2.00;99.90;;;;;;5023065;28;20029;-73
2023/03/01 01:43:43;;;;;;;18.33;6.75;;;2.00;99.90;;;;;;5023083;28;20396;-73
2023/03/01 01:46:30;;;;;;;14.48;7.10;;;2.00;99.90;;;;;;5012880;28;20064;-73
2023/03/01 01:48:58;;;;;;;12.32;6.18;;;2.00;99.90;;;;;;5020704;28;20072;-72
2023/03/01 01:51:37;;;;;;;12.48;6.47;;;2.00;99.90;;;;;;5023696;28;20105;-72
2023/03/01 01:54:08;;;;;;;15.77;6.75;;;1.90;99.90;;;;;;5021713;28;20365;-75
2023/03/01 01:56:36;;;;;;;15.20;6.80;;;1.90;99.90;;;;;;5023622;28;20029;-74
2023/03/01 01:59:02;;;;;;;10.35;6.70;;;1.90;99.90;;;;;;5023753;28;20072;-75
2023/03/01 02:01:28;;;;;;;13.43;7.03;;;1.90;99.90;;;;;;5025061;28;20026;-74
2023/03/01 02:03:53;;;;;;;12.43;6.28;;;1.90;99.90;;;;;;5024997;28;20116;-74
2023/03/01 02:06:42;;;;;;;13.07;6.78;;;1.90;99.90;;;;;;5020198;28;20054;-74
2023/03/01 02:09:13;;;;;;;14.05;6.53;;;2.00;99.90;;;;;;5023141;28;20030;-74
2023/03/01 02:11:39;;;;;;;12.50;6.65;;;2.00;99.90;;;;;;5023360;28;20037;-72
2023/03/01 02:14:06;;;;;;;11.85;6.70;;;2.00;99.90;;;;;;5017986;28;20575;-72
2023/03/01 02:16:32;;;;;;;11.10;6.25;;;2.00;99.90;;;;;;5018631;28;20538;-73
2023/03/01 02:18:58;;;;;;;13.52;6.45;;;2.00;99.90;;;;;;5016353;28;20032;-72
2023/03/01 02:21:33;;;;;;;12.60;6.75;;;1.90;99.90;;;;;;5015948;28;20065;-72
2023/03/01 02:24:27;;;;;;;14.50;7.20;;;1.90;99.90;;;;;;5017704;28;20037;-74
2023/03/01 02:26:55;;;;;;;17.98;6.72;;;1.90;99.90;;;;;;4992926;28;20036;-74
2023/03/01 02:29:23;;;;;;;15.02;7.22;;;1.90;99.90;;;;;;5015752;28;20096;-75
2023/03/01 02:31:51;;;;;;;12.38;6.50;;;1.90;99.90;;;;;;5018748;28;20122;-75
2023/03/01 02:34:28;;;;;;;12.57;6.80;;;1.90;99.90;;;;;;5002480;28;20111;-75
2023/03/01 02:37:20;;;;;;;13.30;6.72;;;1.90;99.90;;;;;;5017665;28;20030;-74
2023/03/01 02:39:50;;;;;;;13.75;7.47;;;1.90;99.90;;;;;;5019106;28;20051;-74
2023/03/01 02:42:23;;;;;;;18.70;6.80;;;1.90;99.90;;;;;;5015388;28;20026;-74
2023/03/01 02:44:49;;;;;;;12.68;6.22;;;2.00;99.90;;;;;;5015457;28;20021;-74
2023/03/01 02:47:15;;;;;;;10.65;6.60;;;2.00;99.90;;;;;;5018602;28;20025;-74
2023/03/01 02:49:42;;;;;;;13.30;6.70;;;2.00;99.90;;;;;;5018376;28;20026;-74
2023/03/01 02:52:40;;;;;;;10.52;6.85;;;2.00;99.90;;;;;;5017510;28;20412;-72
2023/03/01 02:55:17;;;;;;;11.68;5.75;;;2.00;99.90;;;;;;5018632;28;20076;-74
2023/03/01 02:57:45;;;;;;;11.40;5.95;;;2.00;99.90;;;;;;5016092;28;20070;-74
2023/03/01 03:00:22;;;;;;;12.15;5.68;;;1.90;99.90;;;;;;5016522;28;20037;-74
2023/03/01 03:02:54;;;;;;;9.98;5.45;;;1.90;99.90;;;;;;5018558;28;20057;-74
2023/03/01 03:05:23;;;;;;;10.55;5.95;;;1.90;99.90;;;;;;5002513;28;20121;-74
2023/03/01 03:07:49;;;;;;;10.95;4.90;;;1.80;99.90;;;;;;5016820;28;20079;-72
2023/03/01 03:10:36;;;;;;;11.02;4.93;;;1.80;99.90;;;;;;5016858;28;20026;-71
2023/03/01 03:13:13;;;;;;;8.13;4.75;;;1.80;99.90;;;;;;4998731;28;20033;-73
2023/03/01 03:15:41;;;;;;;7.55;4.47;;;1.80;99.90;;;;;;5016375;28;20043;-73
2023/03/01 03:18:10;;;;;;;7.57;4.85;;;1.80;99.90;;;;;;5020556;28;20052;-74
2023/03/01 03:20:37;;;;;;;11.10;5.38;;;1.80;99.90;;;;;;5016426;28;20036;-73
2023/03/01 03:23:04;;;;;;;11.18;5.13;;;1.80;99.90;;;;;;5017744;28;20022;-73
2023/03/01 03:25:30;;;;;;;8.15;4.60;;;1.80;99.90;;;;;;5018555;28;20030;-73
2023/03/01 03:27:57;;;;;;;9.55;4.70;;;1.80;99.90;;;;;;5016764;28;20029;-73
2023/03/01 03:30:29;;;;;;;7.35;4.45;;;1.90;99.90;;;;;;5018570;28;20025;-76
2023/03/01 03:32:56;;;;;;;8.60;4.93;;;1.80;99.90;;;;;;5002608;28;20053;-74
2023/03/01 03:35:31;;;;;;;7.10;4.30;;;1.90;99.90;;;;;;5018123;28;20034;-74
2023/03/01 03:38:03;;;;;;;10.50;4.65;;;1.90;99.90;;;;;;5022919;28;20040;-74
2023/03/01 03:40:40;;;;;;;8.65;4.75;;;2.00;99.90;;;;;;5003783;28;20030;-75
2023/03/01 03:43:09;;;;;;;8.55;4.70;;;2.00;99.90;;;;;;5021055;28;20045;-75
2023/03/01 03:45:35;;;;;;;11.15;4.40;;;2.00;99.90;;;;;;5011241;28;20501;-75
2023/03/01 03:48:03;;;;;;;7.57;4.32;;;2.00;99.90;;;;;;5022924;28;20040;-75
2023/03/01 03:50:29;;;;;;;7.15;3.88;;;2.00;99.90;;;;;;5017168;28;20033;-73
2023/03/01 03:52:54;;;;;;;7.90;3.83;;;2.00;99.90;;;;;;5018769;28;20033;-74
2023/03/01 03:55:20;;;;;;;8.10;4.25;;;2.10;99.90;;;;;;5014829;28;20037;-74
2023/03/01 03:57:51;;;;;;;7.38;4.25;;;2.10;99.90;;;;;;5017554;28;20029;-74
2023/03/01 04:00:19;;;;;;;6.57;3.97;;;2.10;99.90;;;;;;5017110;28;20036;-74
2023/03/01 04:02:47;;;;;;;9.23;3.90;;;2.10;99.90;;;;;;5015996;28;20493;-73
2023/03/01 04:05:15;;;;;;;6.85;3.50;;;2.10;99.90;;;;;;5021004;28;20440;-74
2023/03/01 04:07:41;;;;;;;6.03;3.55;;;2.10;99.90;;;;;;5017453;28;20587;-74
2023/03/01 04:10:11;;;;;;;7.82;3.78;;;2.10;99.90;;;;;;5023149;28;20387;-75
2023/03/01 04:12:37;;;;;;;8.98;3.88;;;2.10;99.90;;;;;;5014928;28;20439;-75
2023/03/01 04:15:12;;;;;;;8.15;3.97;;;2.10;99.90;;;;;;5014976;28;20033;-75
2023/03/01 04:17:46;;;;;;;7.95;3.63;;;2.10;99.90;;;;;;5015038;28;20033;-75
2023/03/01 04:20:38;;;;;;;6.05;3.58;;;2.20;99.90;;;;;;5017382;28;20064;-73
2023/03/01 04:23:15;;;;;;;7.00;3.90;;;2.20;99.90;;;;;;5010439;28;20119;-73
2023/03/01 04:25:55;;;;;;;8.10;3.90;;;2.20;99.90;;;;;;5017562;28;20056;-75
2023/03/01 04:28:35;;;;;;;6.22;3.40;;;2.20;99.90;;;;;;5016168;28;20375;-75
2023/03/01 04:31:20;;;;;;;7.35;3.70;;;2.30;99.90;;;;;;5016343;28;20097;-73
2023/03/01 04:33:51;;;;;;;8.18;4.05;;;2.30;99.90;;;;;;5016275;28;20036;-75
2023/03/01 04:36:18;;;;;;;6.43;3.53;;;2.30;99.90;;;;;;4997052;28;20030;-75
2023/03/01 04:38:47;;;;;;;5.20;2.90;;;2.30;99.90;;;;;;5019588;28;20528;-73
2023/03/01 04:41:15;;;;;;;8.45;3.65;;;2.40;99.90;;;;;;5017135;28;20045;-75
2023/03/01 04:43:41;;;;;;;8.95;3.88;;;2.40;99.90;;;;;;5014440;28;20402;-73
2023/03/01 04:46:10;;;;;;;9.82;3.88;;;2.40;99.90;;;;;;5016057;28;20036;-73
2023/03/01 04:48:41;;;;;;;6.32;3.17;;;2.40;99.90;;;;;;5019227;28;20108;-73
2023/03/01 04:51:07;;;;;;;7.05;3.72;;;2.40;99.90;;;;;;5014292;28;20047;-74
2023/03/01 04:53:38;;;;;;;7.20;3.25;;;2.40;99.90;;;;;;5014414;28;20034;-73
2023/03/01 04:56:04;;;;;;;7.30;3.67;;;2.50;99.90;;;;;;5017497;28;20095;-73
2023/03/01 04:58:30;;;;;;;6.65;3.35;;;2.50;99.90;;;;;;5014619;28;20034;-75
2023/03/01 05:00:56;;;;;;;8.95;3.53;;;2.50;99.90;;;;;;5026375;28;20055;-73
2023/03/01 05:03:22;;;;;;;6.50;3.75;;;2.40;99.90;;;;;;5026856;28;20041;-72
2023/03/01 05:05:50;;;;;;;8.32;3.65;;;2.50;99.90;;;;;;5018310;28;20018;-74
2023/03/01 05:08:20;;;;;;;8.00;3.60;;;2.40;99.90;;;;;;5015668;28;20040;-73
2023/03/01 05:10:51;;;;;;;10.00;3.63;;;2.50;99.90;;;;;;5015977;28;20040;-75
2023/03/01 05:13:21;;;;;;;7.93;3.33;;;2.40;99.90;;;;;;5015492;28;20033;-73
2023/03/01 05:15:53;;;;;;;7.22;3.70;;;2.50;99.90;;;;;;5014520;28;20494;-72
2023/03/01 05:18:19;;;;;;;8.50;3.40;;;2.50;99.90;;;;;;4998351;28;20087;-75
2023/03/01 05:20:46;;;;;;;7.22;3.78;;;2.50;99.90;;;;;;5016075;28;20029;-73
2023/03/01 05:23:11;;;;;;;7.18;3.70;;;2.50;99.90;;;;;;5015944;28;20117;-73
2023/03/01 05:25:39;;;;;;;6.57;3.13;;;2.50;99.90;;;;;;5014310;28;20109;-74
2023/03/01 05:28:15;;;;;;;7.57;3.08;;;2.40;99.90;;;;;;5018225;28;20041;-73
2023/03/01 05:30:41;;;;;;;4.72;2.95;;;2.40;99.90;;;;;;4993813;28;20034;-76
2023/03/01 05:33:13;;;;;;;8.02;3.30;;;2.50;99.90;;;;;;5007510;28;20112;-73
2023/03/01 05:35:43;;;;;;;11.68;3.20;;;2.50;99.90;;;;;;5014154;28;20037;-74
2023/03/01 05:38:15;;;;;;;9.75;3.20;;;2.50;99.90;;;;;;5013548;28;20060;-72
2023/03/01 05:40:46;;;;;;;7.53;3.20;;;2.50;99.90;;;;;;5010246;28;20909;-76
2023/03/01 05:43:14;;;;;;;7.65;3.58;;;2.50;99.90;;;;;;5014379;28;20026;-74
2023/03/01 05:45:40;;;;;;;7.13;3.55;;;2.50;99.90;;;;;;5015283;28;20037;-72
2023/03/01 05:48:10;;;;;;;8.82;3.90;;;2.50;99.90;;;;;;5015062;28;20125;-75
2023/03/01 05:50:39;;;;;;;9.80;3.78;;;2.50;99.90;;;;;;4994600;28;20026;-72
2023/03/01 05:53:12;;;;;;;9.40;3.38;;;2.50;99.90;;;;;;5015333;28;20040;-75
2023/03/01 05:55:39;;;;;;;7.40;3.03;;;2.50;99.90;;;;;;5014131;28;20113;-72
2023/03/01 05:58:07;;;;;;;8.43;4.10;;;2.50;99.90;;;;;;5006687;28;20117;-73
2023/03/01 06:00:34;;;;;;;8.02;3.78;;;2.50;99.90;;;;;;5017065;28;20061;-75
2023/03/01 06:03:00;;;;;;;7.68;3.70;;;2.50;99.90;;;;;;5012947;28;20034;-74
2023/03/01 06:05:27;;;;;;;6.93;3.45;;;2.50;99.90;;;;;;5015021;28;20508;-73
2023/03/01 06:07:53;;;;;;;5.13;2.88;;;2.50;99.90;;;;;;5018911;28;20022;-76
2023/03/01 06:10:21;;;;;;;7.60;3.53;;;2.50;99.90;;;;;;5015331;28;20026;-75
2023/03/01 06:12:46;;;;;;;8.43;3.40;;;2.50;99.90;;;;;;5017793;28;20029;-74
2023/03/01 06:15:14;;;;;;;7.97;4.05;;;2.50;99.90;;;;;;5016580;28;21522;-74
2023/03/01 06:17:42;;;;;;;7.72;3.40;;;2.50;99.90;;;;;;4999262;28;20044;-71
2023/03/01 06:20:14;;;;;;;7.82;3.72;;;2.50;99.90;;;;;;5018417;28;20414;-75
2023/03/01 06:22:41;;;;;;;8.77;3.90;;;2.50;99.90;;;;;;5025674;28;20048;-74
2023/03/01 06:25:08;;;;;;;7.57;3.17;;;2.50;99.90;;;;;;5016450;28;20026;-76
2023/03/01 06:27:34;;;;;;;7.43;3.60;;;2.50;99.90;;;;;;5016010;28;20037;-74
2023/03/01 06:30:02;;;;;;;8.45;3.80;;;2.50;99.90;;;;;;5007894;28;20037;-73
2023/03/01 06:32:27;;;;;;;7.57;3.38;;;2.50;99.90;;;;;;5018044;28;20029;-74
2023/03/01 06:34:54;;;;;;;8.27;3.60;;;2.50;99.90;;;;;;5017628;28;20037;-76
2023/03/01 06:37:21;;;;;;;8.27;3.47;;;2.50;99.90;;;;;;5015322;28;20048;-79
2023/03/01 06:39:47;;;;;;;8.57;3.20;;;2.50;99.90;;;;;;4997553;28;20049;-76
2023/03/01 06:42:12;;;;;;;8.23;3.95;;;2.50;99.90;;;;;;5015134;28;20045;-76
2023/03/01 06:44:38;;;;;;;8.55;3.95;;;2.50;99.90;;;;;;4998601;28;20037;-74
2023/03/01 06:47:05;;;;;;;9.23;4.03;;;2.50;99.90;;;;;;5021234;28;20026;-77
2023/03/01 06:49:31;;;;;;;8.70;4.30;;;2.50;99.90;;;;;;5015281;28;20067;-74
2023/03/01 06:51:57;;;;;;;8.40;4.55;;;2.60;99.90;;;;;;5014964;28;20989;-74
2023/03/01 06:54:23;;;;;;;9.32;3.95;;;2.60;99.90;;;;;;5018646;28;20025;-74
2023/03/01 06:56:52;;;;;;;9.00;3.72;;;2.60;99.90;;;;;;5015183;28;20115;-75
2023/03/01 06:59:18;;;;;;;12.35;4.47;;;2.70;99.90;;;;;;5017895;28;20064;-75
2023/03/01 07:01:44;;;;;;;11.48;4.82;;;2.70;99.90;;;;;;5002299;28;20074;-74
2023/03/01 07:04:12;;;;;;;10.25;4.47;;;2.70;99.90;;;;;;5016442;28;20048;-74
2023/03/01 07:06:38;;;;;;;8.93;3.90;;;2.80;99.90;;;;;;5020174;28;20378;-75
2023/03/01 07:09:03;;;;;;;9.82;4.00;;;2.80;99.90;;;;;;5018255;28;20026;-73
2023/03/01 07:11:29;;;;;;;5.95;3.63;;;2.80;99.90;;;;;;5026684;28;20501;-76
2023/03/01 07:13:55;;;;;;;10.77;3.95;;;2.90;99.90;;;;;;5017808;28;20390;-75
2023/03/01 07:16:23;;;;;;;11.43;3.95;;;2.90;99.90;;;;;;4999830;28;20033;-78
2023/03/01 07:18:54;;;;;;;11.52;4.50;;;2.90;99.90;;;;;;5019355;28;20021;-76
2023/03/01 07:21:20;;;;;;;6.10;3.78;;;3.00;99.90;;;;;;5024165;28;20034;-72
2023/03/01 07:23:48;;;;;;;8.00;3.88;;;3.00;99.90;;;;;;5021098;28;20037;-73
2023/03/01 07:26:16;;;;;;;12.75;4.18;;;3.00;99.90;;;;;;5017071;28;20493;-72
2023/03/01 07:28:42;;;;;;;8.20;4.13;;;3.10;99.90;;;;;;5015294;28;20096;-73
2023/03/01 07:31:08;;;;;;;13.02;4.82;;;3.00;99.90;;;;;;5017977;28;20026;-71
2023/03/01 07:33:34;;;;;;;12.27;4.57;;;3.00;99.90;;;;;;5017571;28;20034;-75
2023/03/01 07:36:01;;;;;;;14.63;5.70;;;3.00;99.90;;;;;;5019630;28;20029;-74
2023/03/01 07:38:28;;;;;;;14.90;5.60;;;3.00;99.90;;;;;;5012722;28;20037;-75
2023/03/01 07:40:59;;;;;;;14.40;6.20;;;3.00;99.90;;;;;;5022432;28;20026;-76
2023/03/01 07:43:25;;;;;;;16.17;6.78;;;3.00;99.90;;;;;;5014649;28;20038;-71
2023/03/01 07:45:51;;;;;;;15.32;6.13;;;3.00;99.90;;;;;;5014421;28;20036;-74
2023/03/01 07:48:17;;;;;;;12.82;5.30;;;3.10;99.90;;;;;;5034380;28;20025;-71
2023/03/01 07:50:42;;;;;;;10.50;6.00;;;3.10;99.90;;;;;;5017641;28;20028;-71
2023/03/01 07:53:09;;;;;;;12.00;5.80;;;3.10;99.90;;;;;;5020130;28;20040;-74
2023/03/01 07:55:34;;;;;;;16.38;6.30;;;3.10;99.90;;;;;;5015482;28;20168;-72
2023/03/01 07:58:00;;;;;;;13.90;6.15;;;3.20;99.90;;;;;;5018457;28;20572;-71
2023/03/01 08:00:26;;;;;;;10.27;5.20;;;3.10;99.90;;;;;;5011716;28;20424;-75
2023/03/01 08:02:53;;;;;;;9.68;6.20;;;3.20;99.90;;;;;;5016092;28;20107;-74
2023/03/01 08:05:18;;;;;;;14.82;6.57;;;3.20;99.90;;;;;;5016046;28;20034;-72
2023/03/01 08:07:44;;;;;;;15.95;6.88;;;3.10;99.90;;;;;;5017215;28;20029;-75
2023/03/01 08:10:10;;;;;;;16.42;8.02;;;3.10;99.90;;;;;;5015317;28;20033;-74
2023/03/01 08:12:36;;;;;;;19.83;8.48;;;3.00;99.90;;;;;;5019559;28;20041;-75
2023/03/01 08:15:02;;;;;;;17.42;8.70;;;3.00;99.90;;;;;;5018832;28;20488;-74
2023/03/01 08:17:28;;;;;;;19.55;9.10;;;3.10;99.90;;;;;;5019885;28;20026;-72
2023/03/01 08:19:54;;;;;;;22.20;9.02;;;3.10;99.90;;;;;;5021156;28;20060;-75
2023/03/01 08:22:19;;;;;;;28.20;11.82;;;3.20;99.90;;;;;;5017318;28;20255;-75
2023/03/01 08:24:46;;;;;;;19.85;10.57;;;3.20;99.90;;;;;;5018317;28;20057;-75
2023/03/01 08:27:13;;;;;;;23.42;10.40;;;3.30;99.90;;;;;;5001583;28;20054;-75
2023/03/01 08:29:38;;;;;;;19.15;10.60;;;3.40;99.90;;;;;;5017142;28;20033;-71
2023/03/01 08:32:04;;;;;;;18.42;11.18;;;3.50;99.90;;;;;;5016021;28;20550;-75
2023/03/01 08:34:31;;;;;;;22.25;11.07;;;3.50;99.90;;;;;;5019540;28;20026;-76
2023/03/01 08:36:57;;;;;;;27.00;11.48;;;3.70;99.90;;;;;;5015790;28;20626;-75
2023/03/01 08:39:23;;;;;;;20.92;12.10;;;3.70;99.90;;;;;;5018367;28;20026;-72
2023/03/01 08:41:49;;;;;;;21.98;12.52;;;3.80;99.90;;;;;;5017524;28;20545;-74
2023/03/01 08:44:16;;;;;;;16.48;10.18;;;3.80;99.90;;;;;;5029034;28;20029;-71
2023/03/01 08:46:43;;;;;;;22.30;11.43;;;3.80;99.90;;;;;;5027647;28;20045;-74
2023/03/01 08:49:13;;;;;;;18.52;10.45;;;3.90;99.90;;;;;;5016280;28;20112;-71
2023/03/01 08:51:39;;;;;;;21.08;11.00;;;4.00;99.90;;;;;;5000292;28;20037;-75
2023/03/01 08:54:06;;;;;;;17.77;10.80;;;4.10;99.90;;;;;;5022996;28;20026;-74
2023/03/01 08:56:33;;;;;;;19.55;11.52;;;4.10;99.90;;;;;;5019619;28;20034;-75
2023/03/01 08:59:00;;;;;;;19.15;11.07;;;4.10;99.90;;;;;;5017243;28;20048;-74
2023/03/01 09:01:27;;;;;;;17.23;9.88;;;4.20;99.90;;;;;;5017352;28;20022;-74
2023/03/01 09:03:53;;;;;;;20.13;11.13;;;4.20;99.90;;;;;;5024416;28;20580;-74
2023/03/01 09:06:19;;;;;;;16.98;10.18;;;4.30;99.90;;;;;;5016653;28;20032;-71
2023/03/01 09:08:47;;;;;;;19.90;11.20;;;4.30;99.90;;;;;;4998609;28;20025;-72
2023/03/01 09:11:16;;;;;;;15.82;9.88;;;4.30;99.90;;;;;;5033557;28;20029;-71
2023/03/01 09:13:43;;;;;;;17.05;9.93;;;4.30;99.90;;;;;;5018643;28;20106;-72
2023/03/01 09:16:10;;;;;;;16.42;10.55;;;4.50;99.90;;;;;;5012394;28;20602;-74
2023/03/01 09:18:36;;;;;;;20.95;11.30;;;4.50;99.90;;;;;;5016546;28;20093;-71
2023/03/01 09:21:07;;;;;;;18.52;12.20;;;4.50;99.90;;;;;;5015497;28;20580;-74
2023/03/01 09:23:36;;;;;;;22.38;12.98;;;4.60;99.90;;;;;;5014096;28;20053;-72
2023/03/01 09:26:02;;;;;;;20.30;11.05;;;4.60;99.90;;;;;;5018190;28;20272;-74
2023/03/01 09:28:28;;;;;;;17.55;11.57;;;4.60;99.90;;;;;;5019901;28;20123;-75
2023/03/01 09:30:58;;;;;;;21.98;12.88;;;4.70;99.90;;;;;;5017160;28;20167;-76
2023/03/01 09:33:24;;;;;;;20.60;12.38;;;4.80;99.90;;;;;;5022890;28;20125;-75
2023/03/01 09:35:49;;;;;;;19.08;11.10;;;4.80;99.90;;;;;;5025790;28;20025;-72
2023/03/01 09:38:15;;;;;;;17.25;11.05;;;4.80;99.90;;;;;;5022061;28;20470;-77
2023/03/01 09:40:46;;;;;;;22.73;11.60;;;4.90;99.90;;;;;;5019878;28;20113;-73
2023/03/01 09:43:38;;;;;;;17.33;10.68;;;4.90;99.90;;;;;;5018480;28;20037;-76
2023/03/01 09:46:08;;;;;;;23.67;12.23;;;4.90;99.90;;;;;;5017164;28;20113;-72
2023/03/01 09:48:48;;;;;;;18.80;11.77;;;4.80;99.90;;;;;;5021654;28;20633;-73
2023/03/01 09:51:41;;;;;;;22.88;10.88;;;4.60;99.90;;;;;;5019331;28;20108;-74
2023/03/01 09:54:10;;;;;;;18.80;10.75;;;4.80;99.90;;;;;;5018272;28;20045;-76
2023/03/01 09:57:00;;;;;;;21.20;12.18;;;4.90;99.90;;;;;;5019925;28;20037;-73
2023/03/01 09:59:33;;;;;;;22.10;12.25;;;4.90;99.90;;;;;;5018551;28;20052;-75
2023/03/01 10:02:27;;;;;;;19.55;11.40;;;5.00;99.90;;;;;;5021614;28;20052;-74
2023/03/01 10:05:03;;;;;;;19.45;12.65;;;5.30;99.90;;;;;;5003630;28;20943;-73
2023/03/01 10:07:52;;;;;;;20.38;12.07;;;5.70;99.90;;;;;;5006378;28;20025;-75
2023/03/01 10:10:33;;;;;;;18.98;10.80;;;6.40;99.90;;;;;;5022279;28;20112;-73
2023/03/01 10:13:03;;;;;;;19.87;11.30;;;7.30;99.90;;;;;;5020099;28;20383;-75
2023/03/01 10:15:45;;;;;;;18.65;11.00;;;7.00;99.90;;;;;;5021509;28;20583;-76
2023/03/01 10:18:19;;;;;;;19.88;10.82;;;7.30;99.90;;;;;;5020403;28;20397;-75
2023/03/01 10:20:54;;;;;;;14.82;10.23;;;7.40;99.90;;;;;;5006638;28;20501;-75
2023/03/01 10:23:22;;;;;;;16.55;10.02;;;7.70;99.90;;;;;;5009814;28;20137;-75
2023/03/01 10:25:59;;;;;;;15.38;9.93;;;8.60;99.90;;;;;;5018272;28;20105;-76
2023/03/01 10:28:42;;;;;;;17.63;8.82;;;9.70;99.20;;;;;;5021617;28;20045;-75
2023/03/01 10:31:18;;;;;;;17.33;10.05;;;10.10;96.00;;;;;;5022032;28;20028;-75
2023/03/01 10:33:44;;;;;;;14.40;9.40;;;10.40;96.10;;;;;;5000519;28;20025;-76
2023/03/01 10:36:10;;;;;;;14.82;9.23;;;11.20;93.40;;;;;;5028993;28;20378;-75
2023/03/01 10:38:57;;;;;;;15.40;9.88;;;11.90;90.50;;;;;;5022028;28;20033;-75
2023/03/01 10:41:26;;;;;;;14.95;9.70;;;10.20;92.50;;;;;;5020078;28;20041;-75
2023/03/01 10:43:57;;;;;;;13.50;9.02;;;9.60;95.50;;;;;;5018859;28;20026;-74
2023/03/01 10:46:36;;;;;;;14.27;9.05;;;9.50;96.00;;;;;;5002441;28;20028;-74
2023/03/01 10:49:22;;;;;;;12.63;8.73;;;9.30;96.40;;;;;;5016685;28;20034;-74
2023/03/01 10:51:51;;;;;;;13.80;8.55;;;9.20;97.60;;;;;;5017631;28;20116;-74
2023/03/01 10:54:28;;;;;;;13.52;8.55;;;9.40;98.20;;;;;;5019029;28;20428;-75
2023/03/01 10:56:56;;;;;;;11.13;7.55;;;9.60;97.00;;;;;;5021966;28;20237;-75
2023/03/01 10:59:30;;;;;;;10.70;7.25;;;9.20;98.60;;;;;;5019709;28;20100;-75
2023/03/01 11:02:25;;;;;;;10.25;6.57;;;9.60;97.80;;;;;;5020266;28;20068;-75
2023/03/01 11:05:13;;;;;;;10.45;7.10;;;9.90;96.10;;;;;;5018032;28;20041;-75
2023/03/01 11:08:00;;;;;;;10.27;6.68;;;9.00;98.30;;;;;;5002260;28;20370;-74
2023/03/01 11:10:30;;;;;;;9.90;6.68;;;9.00;99.40;;;;;;5018726;28;20061;-75
2023/03/01 11:13:16;;;;;;;10.82;7.28;;;9.60;98.00;;;;;;5017818;28;20063;-75
2023/03/01 11:15:43;;;;;;;10.63;6.72;;;9.90;97.00;;;;;;5017690;28;20033;-75
2023/03/01 11:18:22;;;;;;;9.25;6.43;;;10.20;96.60;;;;;;5018306;28;20038;-75
2023/03/01 11:20:51;;;;;;;10.80;6.20;;;10.00;96.60;;;;;;5016341;28;20060;-75
2023/03/01 11:23:18;;;;;;;10.27;6.72;;;10.10;97.40;;;;;;4999777;28;20036;-75
2023/03/01 11:25:54;;;;;;;9.32;6.18;;;11.00;95.00;;;;;;5017863;28;20389;-73
2023/03/01 11:28:22;;;;;;;8.88;6.38;;;10.80;94.10;;;;;;5019160;28;20111;-72
2023/03/01 11:31:14;;;;;;;10.18;6.13;;;10.70;94.60;;;;;;5017239;28;20156;-73
2023/03/01 11:33:40;;;;;;;10.70;6.00;;;10.30;95.60;;;;;;5017668;28;20041;-73
2023/03/01 11:36:32;;;;;;;10.50;5.97;;;10.50;95.20;;;;;;5017739;28;20091;-73
2023/03/01 11:39:25;;;;;;;9.00;5.97;;;10.10;96.80;;;;;;5018099;28;20029;-73
2023/03/01 11:42:18;;;;;;;10.45;6.20;;;9.70;97.60;;;;;;5017285;28;20038;-75
2023/03/01 11:44:47;;;;;;;9.00;6.15;;;9.00;99.90;;;;;;5020109;28;20029;-76
2023/03/01 11:47:49;;;;;;;9.23;6.10;;;8.70;99.90;;;;;;5018700;28;20355;-73
2023/03/01 11:50:23;;;;;;;7.72;4.93;;;8.50;99.90;;;;;;5017410;28;20419;-72
2023/03/01 11:53:13;;;;;;;5.78;3.28;;;8.20;99.90;;;;;;5018967;28;20073;-73
2023/03/01 11:56:19;;;;;;;7.88;4.88;;;8.20;99.90;;;;;;5017763;28;20581;-73
2023/03/01 11:59:12;;;;;;;7.63;5.25;;;7.80;99.90;;;;;;4990267;28;20045;-72
2023/03/01 12:01:59;;;;;;;10.07;5.30;;;7.50;99.90;;;;;;5026644;28;20025;-73
2023/03/01 12:04:39;;;;;;;11.48;5.75;;;7.40;99.90;;;;;;5000623;28;20034;-74
2023/03/01 12:07:11;;;;;;;8.38;5.18;;;7.20;99.90;;;;;;5018624;28;20497;-73
2023/03/01 12:10:06;;;;;;;10.45;4.85;;;7.40;99.90;;;;;;5021366;28;20026;-73
2023/03/01 12:12:51;;;;;;;9.57;5.07;;;7.20;99.90;;;;;;5015832;28;20046;-75
2023/03/01 12:15:39;;;;;;;9.55;4.85;;;7.10;99.90;;;;;;5019697;28;20775;-75
2023/03/01 12:18:16;;;;;;;8.55;4.88;;;7.30;99.90;;;;;;5017088;28;20100;-75
2023/03/01 12:21:05;;;;;;;9.05;5.07;;;7.10;99.90;;;;;;5019152;28;20032;-75
2023/03/01 12:23:52;;;;;;;9.57;4.57;;;7.20;99.90;;;;;;5019265;28;20095;-75
2023/03/01 12:26:34;;;;;;;6.43;3.92;;;7.20;99.90;;;;;;5003368;28;20022;-75
2023/03/01 12:29:09;;;;;;;7.05;4.10;;;7.20;99.90;;;;;;5024639;28;20215;-72
2023/03/01 12:31:50;;;;;;;7.80;5.05;;;7.00;99.90;;;;;;5029191;28;20033;-72
2023/03/01 12:34:43;;;;;;;8.40;4.97;;;6.90;99.90;;;;;;5020904;28;20017;-72
2023/03/01 12:37:18;;;;;;;8.43;4.80;;;6.80;99.90;;;;;;5016350;28;20040;-72
2023/03/01 12:39:46;;;;;;;7.10;4.82;;;6.70;99.90;;;;;;5019510;28;20029;-74
2023/03/01 12:42:22;;;;;;;10.75;4.95;;;6.70;99.90;;;;;;5025467;28;20040;-75
2023/03/01 12:45:20;;;;;;;8.38;5.10;;;6.70;99.90;;;;;;5015863;28;20045;-74
2023/03/01 12:48:06;;;;;;;9.98;5.68;;;6.70;99.90;;;;;;5000430;28;20037;-74
2023/03/01 12:50:51;;;;;;;9.15;5.28;;;6.60;99.90;;;;;;5014918;28;20030;-73
2023/03/01 12:53:30;;;;;;;7.85;4.97;;;6.60;99.90;;;;;;5018188;28;20214;-72
2023/03/01 12:56:09;;;;;;;7.50;5.15;;;6.60;99.90;;;;;;5019507;28;20397;-72
2023/03/01 12:58:59;;;;;;;7.50;4.93;;;6.60;99.90;;;;;;5017736;28;20037;-71
2023/03/01 13:02:22;;;;;;;9.38;5.60;;;6.60;99.90;;;;;;4978991;28;20041;-75
2023/03/01 13:04:59;;;;;;;9.32;5.97;;;6.60;99.90;;;;;;4965918;28;20054;-73
2023/03/01 13:07:51;;;;;;;10.27;6.25;;;6.70;99.90;;;;;;4950135;28;20108;-74
2023/03/01 13:10:23;;;;;;;9.00;5.65;;;6.70;99.90;;;;;;4953123;28;20039;-74